createdAt,value
2023-01-09T00:00:01.329Z,10.100000
2023-01-09T00:01:00.581Z,10.100000
2023-01-09T00:02:00.686Z,10.100000
2023-01-09T00:03:00.615Z,10.100000
2023-01-09T00:04:00.719Z,9.800000
2023-01-09T00:05:01.081Z,9.800000
2023-01-09T00:06:00.730Z,9.800000
2023-01-09T00:07:00.623Z,6.900000
2023-01-09T00:08:00.691Z,6.900000
2023-01-09T00:09:00.634Z,4.100000
2023-01-09T00:10:02.578Z,4.100000
2023-01-09T00:11:00.648Z,4.100000
2023-01-09T00:12:00.738Z,5.100000
2023-01-09T00:13:00.661Z,5.100000
2023-01-09T00:14:00.723Z,5.100000
2023-01-09T00:15:01.224Z,6.200000
2023-01-09T00:16:00.750Z,6.200000
2023-01-09T00:17:00.707Z,6.500000
2023-01-09T00:18:00.772Z,6.500000
2023-01-09T00:19:00.694Z,6.500000
2023-01-09T00:20:01.420Z,7.300000
2023-01-09T00:21:00.733Z,7.300000
2023-01-09T00:22:00.768Z,9.500000
2023-01-09T00:23:00.723Z,9.500000
2023-01-09T00:24:01.034Z,9.500000
2023-01-09T00:25:01.244Z,9.500000
2023-01-09T00:26:00.835Z,9.500000
2023-01-09T00:27:00.755Z,8.300000
2023-01-09T00:28:00.788Z,8.300000
2023-01-09T00:29:00.737Z,7.100000
2023-01-09T00:30:01.507Z,7.100000
2023-01-09T00:31:00.837Z,7.100000
2023-01-09T00:32:00.837Z,7.100000
2023-01-09T00:33:00.782Z,7.100000
2023-01-09T00:34:00.845Z,8.200000
2023-01-09T00:35:01.258Z,8.200000
2023-01-09T00:36:00.898Z,8.200000
2023-01-09T00:37:00.795Z,8.200000
2023-01-09T00:38:00.892Z,8.200000
2023-01-09T00:39:00.828Z,8.200000
2023-01-09T00:40:02.538Z,9.000000
2023-01-09T00:41:00.811Z,9.000000
2023-01-09T00:42:00.952Z,9.400000
2023-01-09T00:43:00.845Z,9.400000
2023-01-09T00:44:00.912Z,9.400000
2023-01-09T00:45:01.425Z,9.400000
2023-01-09T00:46:00.966Z,9.400000
2023-01-09T00:47:00.833Z,8.800000
2023-01-09T00:48:00.955Z,8.800000
2023-01-09T00:49:00.873Z,8.800000
2023-01-09T00:50:02.191Z,8.500000
2023-01-09T00:51:00.917Z,8.500000
2023-01-09T00:52:00.987Z,8.500000
2023-01-09T00:53:00.932Z,8.500000
2023-01-09T00:54:01.034Z,8.500000
2023-01-09T00:55:01.426Z,8.500000
2023-01-09T00:56:01.010Z,8.500000
2023-01-09T00:57:00.962Z,4.200000
2023-01-09T00:58:01.052Z,4.200000
2023-01-09T00:59:00.962Z,4.200000
2023-01-09T01:00:08.986Z,7.100000
2023-01-09T01:01:01.173Z,7.100000
2023-01-09T01:02:02.869Z,7.100000
2023-01-09T01:03:01.083Z,6.500000
2023-01-09T01:04:01.046Z,6.500000
2023-01-09T01:05:01.573Z,7.000000
2023-01-09T01:06:01.146Z,7.000000
2023-01-09T01:07:01.018Z,7.000000
2023-01-09T01:08:01.096Z,7.000000
2023-01-09T01:09:01.047Z,7.000000
2023-01-09T01:10:01.754Z,10.000000
2023-01-09T01:11:01.053Z,10.000000
2023-01-09T01:12:01.140Z,10.000000
2023-01-09T01:13:01.059Z,5.700000
2023-01-09T01:14:01.150Z,5.700000
2023-01-09T01:15:01.601Z,5.700000
2023-01-09T01:16:01.150Z,4.900000
2023-01-09T01:17:01.178Z,4.900000
2023-01-09T01:18:01.187Z,4.800000
2023-01-09T01:19:01.093Z,4.800000
2023-01-09T01:20:02.606Z,4.300000
2023-01-09T01:21:01.111Z,4.300000
2023-01-09T01:22:01.184Z,4.300000
2023-01-09T01:23:01.104Z,4.400000
2023-01-09T01:24:01.241Z,4.400000
2023-01-09T01:25:01.610Z,4.400000
2023-01-09T01:26:01.175Z,4.400000
2023-01-09T01:27:01.136Z,4.400000
2023-01-09T01:28:01.187Z,5.500000
2023-01-09T01:29:01.127Z,5.500000
2023-01-09T01:30:09.107Z,5.500000
2023-01-09T01:31:01.211Z,5.500000
2023-01-09T01:32:01.226Z,5.500000
2023-01-09T01:33:01.169Z,5.500000
2023-01-09T01:34:02.567Z,5.500000
2023-01-09T01:35:01.721Z,5.500000
2023-01-09T01:36:01.332Z,5.500000
2023-01-09T01:37:00.178Z,5.500000
2023-01-09T01:38:00.259Z,5.500000
2023-01-09T01:39:00.215Z,4.000000
2023-01-09T01:40:00.916Z,4.000000
2023-01-09T01:41:00.244Z,4.000000
2023-01-09T01:42:00.366Z,4.000000
2023-01-09T01:43:00.220Z,4.700000
2023-01-09T01:44:00.328Z,4.700000
2023-01-09T01:45:01.432Z,4.700000
2023-01-09T01:46:00.421Z,8.400000
2023-01-09T01:47:00.263Z,8.400000
2023-01-09T01:48:00.364Z,8.400000
2023-01-09T01:49:00.280Z,8.400000
2023-01-09T01:50:01.039Z,8.400000
2023-01-09T01:51:00.318Z,6.700000
2023-01-09T01:52:00.346Z,6.700000
2023-01-09T01:53:00.304Z,7.500000
2023-01-09T01:54:00.408Z,7.500000
2023-01-09T01:55:00.833Z,7.500000
2023-01-09T01:56:00.377Z,7.500000
2023-01-09T01:57:00.334Z,7.500000
2023-01-09T01:58:00.420Z,7.500000
2023-01-09T01:59:00.326Z,0.000000
2023-01-09T02:00:02.601Z,0.000000
2023-01-09T02:01:00.457Z,6.400000
2023-01-09T02:02:00.735Z,6.400000
2023-01-09T02:03:00.423Z,6.400000
2023-01-09T02:04:00.421Z,6.400000
2023-01-09T02:05:00.894Z,4.000000
2023-01-09T02:06:00.505Z,4.000000
2023-01-09T02:07:00.393Z,4.000000
2023-01-09T02:08:00.498Z,8.200000
2023-01-09T02:09:00.406Z,8.200000
2023-01-09T02:10:01.149Z,8.200000
2023-01-09T02:11:00.421Z,8.200000
2023-01-09T02:12:00.527Z,8.200000
2023-01-09T02:13:00.419Z,4.400000
2023-01-09T02:14:00.509Z,4.400000
2023-01-09T02:15:01.050Z,6.400000
2023-01-09T02:16:00.534Z,6.400000
2023-01-09T02:17:00.462Z,6.400000
2023-01-09T02:18:00.577Z,6.400000
2023-01-09T02:19:00.461Z,6.400000
2023-01-09T02:20:01.193Z,6.400000
2023-01-09T02:21:00.495Z,5.400000
2023-01-09T02:22:00.549Z,5.400000
2023-01-09T02:23:00.520Z,5.400000
2023-01-09T02:24:00.585Z,5.400000
2023-01-09T02:25:01.019Z,0.000000
2023-01-09T02:26:00.617Z,0.000000
2023-01-09T02:27:00.514Z,0.000000
2023-01-09T02:28:00.565Z,0.000000
2023-01-09T02:29:00.522Z,0.000000
2023-01-09T02:30:01.491Z,0.000000
2023-01-09T02:31:00.543Z,0.000000
2023-01-09T02:32:00.633Z,0.000000
2023-01-09T02:33:00.567Z,0.000000
2023-01-09T02:34:00.630Z,4.000000
2023-01-09T02:35:01.089Z,4.000000
2023-01-09T02:36:00.661Z,0.000000
2023-01-09T02:37:00.589Z,0.000000
2023-01-09T02:38:00.665Z,0.000000
2023-01-09T02:39:00.597Z,0.000000
2023-01-09T02:40:01.707Z,0.000000
2023-01-09T02:41:00.607Z,0.000000
2023-01-09T02:42:00.719Z,0.000000
2023-01-09T02:43:00.635Z,0.000000
2023-01-09T02:44:00.671Z,4.000000
2023-01-09T02:45:01.161Z,4.000000
2023-01-09T02:46:00.736Z,4.300000
2023-01-09T02:47:00.640Z,4.300000
2023-01-09T02:48:00.740Z,4.300000
2023-01-09T02:49:00.649Z,4.300000
2023-01-09T02:50:02.640Z,4.300000
2023-01-09T02:51:00.687Z,0.000000
2023-01-09T02:52:00.750Z,0.000000
2023-01-09T02:53:00.694Z,0.000000
2023-01-09T02:54:00.785Z,0.000000
2023-01-09T02:55:01.252Z,0.000000
2023-01-09T02:56:00.764Z,0.000000
2023-01-09T02:57:00.715Z,5.800000
2023-01-09T02:58:00.778Z,5.800000
2023-01-09T02:59:00.709Z,4.000000
2023-01-09T03:00:01.460Z,4.000000
2023-01-09T03:01:00.838Z,4.800000
2023-01-09T03:02:00.975Z,4.800000
2023-01-09T03:03:00.804Z,4.800000
2023-01-09T03:04:00.823Z,5.200000
2023-01-09T03:05:01.351Z,5.200000
2023-01-09T03:06:00.871Z,5.200000
2023-01-09T03:07:00.781Z,5.700000
2023-01-09T03:08:00.872Z,5.700000
2023-01-09T03:09:00.810Z,4.300000
2023-01-09T03:10:01.509Z,4.300000
2023-01-09T03:11:00.832Z,5.400000
2023-01-09T03:12:00.895Z,5.400000
2023-01-09T03:13:00.832Z,5.400000
2023-01-09T03:14:00.894Z,6.000000
2023-01-09T03:15:01.343Z,6.000000
2023-01-09T03:16:00.935Z,6.000000
2023-01-09T03:17:00.856Z,6.000000
2023-01-09T03:18:00.907Z,6.000000
2023-01-09T03:19:00.856Z,7.100000
2023-01-09T03:20:01.615Z,7.100000
2023-01-09T03:21:00.885Z,7.100000
2023-01-09T03:22:02.638Z,7.100000
2023-01-09T03:23:00.905Z,7.100000
2023-01-09T03:24:00.942Z,7.100000
2023-01-09T03:25:01.405Z,5.800000
2023-01-09T03:26:00.948Z,5.800000
2023-01-09T03:27:00.893Z,0.000000
2023-01-09T03:28:00.994Z,0.000000
2023-01-09T03:29:00.916Z,0.000000
2023-01-09T03:30:01.641Z,5.200000
2023-01-09T03:31:00.918Z,5.200000
2023-01-09T03:32:02.629Z,5.200000
2023-01-09T03:33:00.932Z,5.200000
2023-01-09T03:34:01.191Z,5.200000
2023-01-09T03:35:01.942Z,5.200000
2023-01-09T03:36:01.032Z,5.200000
2023-01-09T03:37:00.948Z,0.000000
2023-01-09T03:38:01.054Z,0.000000
2023-01-09T03:39:00.985Z,4.100000
2023-01-09T03:40:01.777Z,4.100000
2023-01-09T03:41:00.991Z,4.100000
2023-01-09T03:42:01.085Z,0.000000
2023-01-09T03:43:01.020Z,0.000000
2023-01-09T03:44:01.089Z,0.000000
2023-01-09T03:45:01.531Z,4.000000
2023-01-09T03:46:01.230Z,4.000000
2023-01-09T03:47:01.024Z,0.000000
2023-01-09T03:48:01.141Z,0.000000
2023-01-09T03:49:01.038Z,0.000000
2023-01-09T03:50:02.622Z,0.000000
2023-01-09T03:51:01.058Z,0.000000
2023-01-09T03:52:01.148Z,0.000000
2023-01-09T03:53:01.087Z,0.000000
2023-01-09T03:54:01.186Z,0.000000
2023-01-09T03:55:01.574Z,0.000000
2023-01-09T03:56:01.148Z,0.000000
2023-01-09T03:57:01.119Z,0.000000
2023-01-09T03:58:01.199Z,0.000000
2023-01-09T03:59:01.115Z,4.400000
2023-01-09T04:00:09.183Z,4.400000
2023-01-09T04:01:01.221Z,4.400000
2023-01-09T04:02:03.830Z,4.400000
2023-01-09T04:03:01.132Z,4.400000
2023-01-09T04:04:01.268Z,0.000000
2023-01-09T04:05:01.680Z,0.000000
2023-01-09T04:06:01.237Z,0.000000
2023-01-09T04:07:01.156Z,5.400000
2023-01-09T04:08:01.224Z,5.400000
2023-01-09T04:09:01.176Z,5.400000
2023-01-09T04:10:02.032Z,5.400000
2023-01-09T04:11:01.190Z,5.400000
2023-01-09T04:12:01.259Z,0.000000
2023-01-09T04:13:01.193Z,0.000000
2023-01-09T04:14:01.252Z,0.000000
2023-01-09T04:15:01.699Z,0.000000
2023-01-09T04:16:02.673Z,0.000000
2023-01-09T04:17:00.218Z,4.000000
2023-01-09T04:18:00.708Z,4.000000
2023-01-09T04:19:00.218Z,4.000000
2023-01-09T04:20:00.963Z,5.200000
2023-01-09T04:21:00.269Z,5.200000
2023-01-09T04:22:00.557Z,5.200000
2023-01-09T04:23:00.234Z,5.900000
2023-01-09T04:24:00.341Z,5.900000
2023-01-09T04:25:00.751Z,5.900000
2023-01-09T04:26:00.366Z,5.900000
2023-01-09T04:27:00.289Z,5.900000
2023-01-09T04:28:00.415Z,5.900000
2023-01-09T04:29:00.283Z,5.900000
2023-01-09T04:30:01.303Z,5.400000
2023-01-09T04:31:00.313Z,5.400000
2023-01-09T04:32:00.390Z,5.400000
2023-01-09T04:33:00.324Z,7.200000
2023-01-09T04:34:00.393Z,7.200000
2023-01-09T04:35:00.886Z,7.200000
2023-01-09T04:36:00.542Z,7.200000
2023-01-09T04:37:00.343Z,5.000000
2023-01-09T04:38:00.407Z,5.000000
2023-01-09T04:39:00.348Z,5.000000
2023-01-09T04:40:01.311Z,4.000000
2023-01-09T04:41:00.363Z,4.000000
2023-01-09T04:42:00.489Z,4.000000
2023-01-09T04:43:00.370Z,0.000000
2023-01-09T04:44:00.446Z,0.000000
2023-01-09T04:45:00.957Z,0.000000
2023-01-09T04:46:00.572Z,0.000000
2023-01-09T04:47:00.408Z,0.000000
2023-01-09T04:48:00.496Z,4.400000
2023-01-09T04:49:00.399Z,4.400000
2023-01-09T04:50:01.300Z,4.500000
2023-01-09T04:51:00.440Z,4.500000
2023-01-09T04:52:00.544Z,4.500000
2023-01-09T04:53:00.433Z,4.600000
2023-01-09T04:54:00.507Z,4.600000
2023-01-09T04:55:01.000Z,6.100000
2023-01-09T04:56:00.534Z,6.100000
2023-01-09T04:57:00.478Z,6.100000
2023-01-09T04:58:00.571Z,6.400000
2023-01-09T04:59:00.471Z,6.400000
2023-01-09T05:00:01.584Z,6.400000
2023-01-09T05:01:00.603Z,6.400000
2023-01-09T05:02:00.723Z,6.400000
2023-01-09T05:03:00.517Z,5.800000
2023-01-09T05:04:00.617Z,5.800000
2023-01-09T05:05:01.032Z,5.800000
2023-01-09T05:06:00.608Z,4.700000
2023-01-09T05:07:00.535Z,4.700000
2023-01-09T05:08:00.578Z,5.700000
2023-01-09T05:09:00.545Z,5.700000
2023-01-09T05:10:01.271Z,5.700000
2023-01-09T05:11:00.537Z,5.700000
2023-01-09T05:12:01.871Z,5.200000
2023-01-09T05:13:00.532Z,5.200000
2023-01-09T05:14:00.642Z,5.200000
2023-01-09T05:15:01.121Z,5.300000
2023-01-09T05:16:00.672Z,5.300000
2023-01-09T05:17:00.570Z,5.300000
2023-01-09T05:18:00.643Z,5.300000
2023-01-09T05:19:00.660Z,5.300000
2023-01-09T05:20:01.429Z,5.800000
2023-01-09T05:21:00.632Z,5.800000
2023-01-09T05:22:00.696Z,6.200000
2023-01-09T05:23:00.615Z,6.200000
2023-01-09T05:24:00.693Z,6.200000
2023-01-09T05:25:01.542Z,6.400000
2023-01-09T05:26:00.708Z,6.400000
2023-01-09T05:27:00.651Z,6.400000
2023-01-09T05:28:00.730Z,8.100000
2023-01-09T05:29:00.643Z,8.100000
2023-01-09T05:30:01.424Z,8.100000
2023-01-09T05:31:00.655Z,8.100000
2023-01-09T05:32:00.720Z,8.100000
2023-01-09T05:33:00.677Z,8.100000
2023-01-09T05:34:00.782Z,8.100000
2023-01-09T05:35:01.279Z,8.100000
2023-01-09T05:36:00.749Z,6.900000
2023-01-09T05:37:00.691Z,6.900000
2023-01-09T05:38:00.771Z,6.900000
2023-01-09T05:39:00.708Z,8.700000
2023-01-09T05:40:01.448Z,8.700000
2023-01-09T05:41:00.715Z,8.700000
2023-01-09T05:42:00.779Z,8.700000
2023-01-09T05:43:00.723Z,8.700000
2023-01-09T05:44:00.795Z,6.500000
2023-01-09T05:45:01.287Z,6.500000
2023-01-09T05:46:00.933Z,5.600000
2023-01-09T05:47:02.721Z,5.600000
2023-01-09T05:48:00.815Z,5.600000
2023-01-09T05:49:00.752Z,6.600000
2023-01-09T05:50:01.528Z,6.600000
2023-01-09T05:51:00.767Z,6.600000
2023-01-09T05:52:00.844Z,6.600000
2023-01-09T05:53:00.775Z,6.600000
2023-01-09T05:54:00.846Z,6.400000
2023-01-09T05:55:01.334Z,6.400000
2023-01-09T05:56:00.845Z,6.500000
2023-01-09T05:57:00.791Z,6.500000
2023-01-09T05:58:00.901Z,6.500000
2023-01-09T05:59:00.816Z,6.500000
2023-01-09T06:00:01.690Z,6.500000
2023-01-09T06:01:00.923Z,6.500000
2023-01-09T06:02:00.961Z,7.000000
2023-01-09T06:03:00.952Z,7.000000
2023-01-09T06:04:00.925Z,8.000000
2023-01-09T06:05:01.392Z,8.000000
2023-01-09T06:06:00.950Z,8.000000
2023-01-09T06:07:00.868Z,8.000000
2023-01-09T06:08:00.939Z,8.000000
2023-01-09T06:09:00.884Z,6.600000
2023-01-09T06:10:01.608Z,6.600000
2023-01-09T06:11:00.883Z,8.100000
2023-01-09T06:12:00.972Z,8.100000
2023-01-09T06:13:00.888Z,8.100000
2023-01-09T06:14:00.972Z,8.100000
2023-01-09T06:15:01.384Z,8.100000
2023-01-09T06:16:01.038Z,8.100000
2023-01-09T06:17:00.924Z,6.700000
2023-01-09T06:18:01.008Z,6.700000
2023-01-09T06:19:00.960Z,6.700000
2023-01-09T06:20:02.083Z,6.700000
2023-01-09T06:21:00.979Z,6.700000
2023-01-09T06:22:01.073Z,7.600000
2023-01-09T06:23:00.966Z,7.600000
2023-01-09T06:24:01.059Z,9.900000
2023-01-09T06:25:01.463Z,9.900000
2023-01-09T06:26:01.074Z,9.900000
2023-01-09T06:27:00.995Z,9.900000
2023-01-09T06:28:01.111Z,9.900000
2023-01-09T06:29:01.011Z,9.900000
2023-01-09T06:30:01.822Z,9.900000
2023-01-09T06:31:01.167Z,9.900000
2023-01-09T06:32:01.088Z,9.900000
2023-01-09T06:33:01.055Z,9.900000
2023-01-09T06:34:01.151Z,9.100000
2023-01-09T06:35:01.633Z,9.100000
2023-01-09T06:36:01.145Z,9.100000
2023-01-09T06:37:01.044Z,9.100000
2023-01-09T06:38:01.128Z,9.100000
2023-01-09T06:39:01.069Z,9.000000
2023-01-09T06:40:01.897Z,9.000000
2023-01-09T06:41:01.093Z,8.200000
2023-01-09T06:42:01.154Z,8.200000
2023-01-09T06:43:01.084Z,8.200000
2023-01-09T06:44:01.162Z,11.900000
2023-01-09T06:45:01.602Z,11.900000
2023-01-09T06:46:01.473Z,11.900000
2023-01-09T06:47:01.108Z,9.200000
2023-01-09T06:48:01.205Z,9.200000
2023-01-09T06:49:01.174Z,9.200000
2023-01-09T06:50:02.032Z,9.200000
2023-01-09T06:51:01.155Z,9.200000
2023-01-09T06:52:01.248Z,9.200000
2023-01-09T06:53:01.155Z,9.200000
2023-01-09T06:54:01.217Z,8.000000
2023-01-09T06:55:02.199Z,8.000000
2023-01-09T06:56:00.234Z,8.000000
2023-01-09T06:57:00.177Z,8.000000
2023-01-09T06:58:00.285Z,8.000000
2023-01-09T06:59:00.161Z,7.600000
2023-01-09T07:00:00.980Z,7.600000
2023-01-09T07:01:00.386Z,7.700000
2023-01-09T07:02:00.390Z,7.700000
2023-01-09T07:03:00.220Z,7.700000
2023-01-09T07:04:00.666Z,8.500000
2023-01-09T07:05:00.827Z,8.500000
2023-01-09T07:06:00.345Z,8.500000
2023-01-09T07:07:00.270Z,8.500000
2023-01-09T07:08:00.550Z,8.500000
2023-01-09T07:09:00.260Z,7.900000
2023-01-09T07:10:01.037Z,7.900000
2023-01-09T07:11:00.300Z,7.900000
2023-01-09T07:12:00.372Z,12.000000
2023-01-09T07:13:00.300Z,12.000000
2023-01-09T07:14:00.357Z,12.000000
2023-01-09T07:15:01.242Z,12.000000
2023-01-09T07:16:00.487Z,12.000000
2023-01-09T07:17:00.332Z,8.400000
2023-01-09T07:18:00.401Z,8.400000
2023-01-09T07:19:00.340Z,8.400000
2023-01-09T07:20:01.247Z,9.700000
2023-01-09T07:21:00.392Z,9.700000
2023-01-09T07:22:00.577Z,9.700000
2023-01-09T07:23:00.361Z,9.700000
2023-01-09T07:24:00.463Z,9.700000
2023-01-09T07:25:00.891Z,11.400000
2023-01-09T07:26:00.476Z,11.400000
2023-01-09T07:27:00.426Z,11.400000
2023-01-09T07:28:00.492Z,11.400000
2023-01-09T07:29:00.426Z,11.400000
2023-01-09T07:30:01.216Z,11.800000
2023-01-09T07:31:00.491Z,11.800000
2023-01-09T07:32:00.513Z,11.800000
2023-01-09T07:33:02.561Z,11.800000
2023-01-09T07:34:00.516Z,11.800000
2023-01-09T07:35:00.980Z,10.000000
2023-01-09T07:36:00.560Z,10.000000
2023-01-09T07:37:00.446Z,9.200000
2023-01-09T07:38:00.553Z,9.200000
2023-01-09T07:39:00.506Z,9.200000
2023-01-09T07:40:01.201Z,7.400000
2023-01-09T07:41:00.497Z,7.400000
2023-01-09T07:42:00.576Z,7.400000
2023-01-09T07:43:00.479Z,10.400000
2023-01-09T07:44:00.570Z,10.400000
2023-01-09T07:45:01.069Z,10.400000
2023-01-09T07:46:00.705Z,10.400000
2023-01-09T07:47:00.528Z,8.900000
2023-01-09T07:48:00.584Z,8.900000
2023-01-09T07:49:00.527Z,8.900000
2023-01-09T07:50:01.479Z,9.000000
2023-01-09T07:51:00.551Z,9.000000
2023-01-09T07:52:00.623Z,11.100000
2023-01-09T07:53:00.553Z,11.100000
2023-01-09T07:54:00.663Z,11.100000
2023-01-09T07:55:01.077Z,11.100000
2023-01-09T07:56:00.662Z,11.100000
2023-01-09T07:57:00.598Z,13.900000
2023-01-09T07:58:00.643Z,13.900000
2023-01-09T07:59:00.570Z,13.900000
2023-01-09T08:00:01.345Z,16.500000
2023-01-09T08:01:00.621Z,16.500000
2023-01-09T08:02:00.771Z,16.500000
2023-01-09T08:03:00.704Z,16.500000
2023-01-09T08:04:00.688Z,16.500000
2023-01-09T08:05:01.140Z,14.200000
2023-01-09T08:06:00.706Z,14.200000
2023-01-09T08:07:00.637Z,14.200000
2023-01-09T08:08:00.738Z,11.700000
2023-01-09T08:09:00.644Z,11.700000
2023-01-09T08:10:01.990Z,11.700000
2023-01-09T08:11:00.676Z,11.700000
2023-01-09T08:12:00.737Z,11.700000
2023-01-09T08:13:00.653Z,11.700000
2023-01-09T08:14:00.753Z,11.700000
2023-01-09T08:15:01.178Z,8.800000
2023-01-09T08:16:00.783Z,8.800000
2023-01-09T08:17:00.730Z,8.800000
2023-01-09T08:18:00.795Z,8.800000
2023-01-09T08:19:00.718Z,8.800000
2023-01-09T08:20:01.501Z,9.600000
2023-01-09T08:21:00.754Z,9.600000
2023-01-09T08:22:00.804Z,9.600000
2023-01-09T08:23:00.733Z,9.600000
2023-01-09T08:24:00.831Z,9.600000
2023-01-09T08:25:01.322Z,8.600000
2023-01-09T08:26:00.858Z,8.600000
2023-01-09T08:27:00.779Z,8.600000
2023-01-09T08:28:00.854Z,10.900000
2023-01-09T08:29:00.768Z,10.900000
2023-01-09T08:30:01.539Z,10.900000
2023-01-09T08:31:00.788Z,10.900000
2023-01-09T08:32:00.884Z,8.700000
2023-01-09T08:33:00.825Z,8.700000
2023-01-09T08:34:00.892Z,8.700000
2023-01-09T08:35:01.472Z,12.900000
2023-01-09T08:36:00.959Z,12.900000
2023-01-09T08:37:00.813Z,12.900000
2023-01-09T08:38:00.910Z,9.200000
2023-01-09T08:39:00.839Z,9.200000
2023-01-09T08:40:01.638Z,9.200000
2023-01-09T08:41:00.859Z,9.200000
2023-01-09T08:42:00.990Z,9.200000
2023-01-09T08:43:00.939Z,7.500000
2023-01-09T08:44:00.954Z,7.500000
2023-01-09T08:45:01.430Z,7.800000
2023-01-09T08:46:00.980Z,7.800000
2023-01-09T08:47:00.869Z,7.800000
2023-01-09T08:48:00.975Z,13.000000
2023-01-09T08:49:00.888Z,13.000000
2023-01-09T08:50:01.667Z,13.000000
2023-01-09T08:51:00.915Z,14.700000
2023-01-09T08:52:00.981Z,14.700000
2023-01-09T08:53:00.915Z,14.700000
2023-01-09T08:54:00.992Z,14.700000
2023-01-09T08:55:01.445Z,8.200000
2023-01-09T08:56:01.053Z,8.200000
2023-01-09T08:57:00.952Z,8.200000
2023-01-09T08:58:01.052Z,8.200000
2023-01-09T08:59:00.964Z,8.200000
2023-01-09T09:00:01.772Z,8.200000
2023-01-09T09:01:01.003Z,12.500000
2023-01-09T09:02:02.121Z,12.500000
2023-01-09T09:03:01.065Z,12.500000
2023-01-09T09:04:01.079Z,12.500000
2023-01-09T09:05:01.897Z,12.500000
2023-01-09T09:06:01.110Z,8.600000
2023-01-09T09:07:01.033Z,8.600000
2023-01-09T09:08:01.140Z,7.400000
2023-01-09T09:09:01.059Z,7.400000
2023-01-09T09:10:01.770Z,7.400000
2023-01-09T09:11:01.064Z,10.300000
2023-01-09T09:12:01.164Z,10.300000
2023-01-09T09:13:01.105Z,10.300000
2023-01-09T09:14:01.225Z,10.300000
2023-01-09T09:15:01.654Z,10.300000
2023-01-09T09:16:01.230Z,10.300000
2023-01-09T09:17:01.133Z,10.300000
2023-01-09T09:18:01.180Z,8.800000
2023-01-09T09:19:01.103Z,8.800000
2023-01-09T09:20:01.930Z,8.800000
2023-01-09T09:21:01.169Z,8.800000
2023-01-09T09:22:01.206Z,8.800000
2023-01-09T09:23:01.141Z,8.800000
2023-01-09T09:24:01.209Z,10.100000
2023-01-09T09:25:01.662Z,10.100000
2023-01-09T09:26:01.248Z,10.100000
2023-01-09T09:27:01.180Z,10.100000
2023-01-09T09:28:01.407Z,10.100000
2023-01-09T09:29:01.168Z,10.600000
2023-01-09T09:30:02.819Z,10.600000
2023-01-09T09:31:00.244Z,10.600000
2023-01-09T09:32:01.071Z,10.600000
2023-01-09T09:33:00.217Z,10.600000
2023-01-09T09:34:00.261Z,12.600000
2023-01-09T09:35:00.784Z,12.600000
2023-01-09T09:36:00.328Z,12.600000
2023-01-09T09:37:00.282Z,12.600000
2023-01-09T09:38:02.001Z,12.600000
2023-01-09T09:39:00.255Z,16.100000
2023-01-09T09:40:09.823Z,16.100000
2023-01-09T09:41:00.243Z,16.100000
2023-01-09T09:42:00.371Z,16.100000
2023-01-09T09:43:00.266Z,16.100000
2023-01-09T09:44:00.639Z,9.500000
2023-01-09T09:45:00.862Z,9.500000
2023-01-09T09:46:00.404Z,9.500000
2023-01-09T09:47:00.295Z,9.500000
2023-01-09T09:48:00.394Z,9.500000
2023-01-09T09:49:00.290Z,9.300000
2023-01-09T09:50:01.001Z,9.300000
2023-01-09T09:51:00.334Z,15.800000
2023-01-09T09:52:00.387Z,15.800000
2023-01-09T09:53:00.340Z,15.800000
2023-01-09T09:54:00.391Z,15.800000
2023-01-09T09:55:00.913Z,15.800000
2023-01-09T09:56:00.428Z,10.000000
2023-01-09T09:57:00.374Z,10.000000
2023-01-09T09:58:00.586Z,10.000000
2023-01-09T09:59:00.361Z,13.500000
2023-01-09T10:00:01.974Z,13.500000
2023-01-09T10:01:00.419Z,13.500000
2023-01-09T10:02:00.595Z,13.500000
2023-01-09T10:03:00.463Z,12.200000
2023-01-09T10:04:00.645Z,12.200000
2023-01-09T10:05:00.944Z,12.200000
2023-01-09T10:06:00.527Z,12.200000
2023-01-09T10:07:00.445Z,12.200000
2023-01-09T10:08:11.529Z,12.200000
2023-01-09T10:09:00.477Z,10.100000
2023-01-09T10:10:01.190Z,10.100000
2023-01-09T10:11:00.476Z,10.100000
2023-01-09T10:12:00.589Z,10.100000
2023-01-09T10:13:00.477Z,10.100000
2023-01-09T10:14:00.617Z,17.100000
2023-01-09T10:15:01.149Z,17.100000
2023-01-09T10:16:00.639Z,17.100000
2023-01-09T10:17:00.530Z,17.100000
2023-01-09T10:18:00.645Z,17.100000
2023-01-09T10:19:00.535Z,11.200000
2023-01-09T10:20:01.279Z,11.200000
2023-01-09T10:21:00.569Z,11.200000
2023-01-09T10:22:00.633Z,13.700000
2023-01-09T10:23:00.563Z,13.700000
2023-01-09T10:24:00.644Z,13.700000
2023-01-09T10:25:01.063Z,13.700000
2023-01-09T10:26:00.674Z,12.800000
2023-01-09T10:27:00.603Z,12.800000
2023-01-09T10:28:00.629Z,12.800000
2023-01-09T10:29:00.572Z,12.800000
2023-01-09T10:30:01.361Z,12.800000
2023-01-09T10:31:00.731Z,12.800000
2023-01-09T10:32:00.723Z,9.900000
2023-01-09T10:33:00.637Z,9.900000
2023-01-09T10:34:00.714Z,9.900000
2023-01-09T10:35:01.146Z,9.900000
2023-01-09T10:36:00.730Z,16.300000
2023-01-09T10:37:00.825Z,16.300000
2023-01-09T10:38:00.730Z,16.300000
2023-01-09T10:39:00.668Z,16.300000
2023-01-09T10:40:01.427Z,16.300000
2023-01-09T10:41:01.748Z,16.300000
2023-01-09T10:42:00.765Z,8.800000
2023-01-09T10:43:00.682Z,8.800000
2023-01-09T10:44:00.949Z,8.800000
2023-01-09T10:45:01.245Z,11.300000
2023-01-09T10:46:00.758Z,11.300000
2023-01-09T10:47:00.825Z,11.300000
2023-01-09T10:48:00.803Z,11.300000
2023-01-09T10:49:00.700Z,10.800000
2023-01-09T10:50:01.445Z,10.800000
2023-01-09T10:51:00.737Z,10.800000
2023-01-09T10:52:00.787Z,9.900000
2023-01-09T10:53:00.731Z,9.900000
2023-01-09T10:54:00.812Z,9.900000
2023-01-09T10:55:01.684Z,9.900000
2023-01-09T10:56:01.090Z,9.900000
2023-01-09T10:57:00.788Z,9.200000
2023-01-09T10:58:00.840Z,9.200000
2023-01-09T10:59:00.782Z,9.200000
2023-01-09T11:00:01.554Z,9.200000
2023-01-09T11:01:00.811Z,9.200000
2023-01-09T11:02:00.937Z,9.600000
2023-01-09T11:03:00.963Z,9.600000
2023-01-09T11:04:00.889Z,9.600000
2023-01-09T11:05:01.364Z,9.500000
2023-01-09T11:06:01.136Z,9.500000
2023-01-09T11:07:00.859Z,9.500000
2023-01-09T11:08:00.955Z,9.500000
2023-01-09T11:09:00.880Z,9.500000
2023-01-09T11:10:01.717Z,9.400000
2023-01-09T11:11:00.943Z,9.400000
2023-01-09T11:12:01.007Z,9.400000
2023-01-09T11:13:00.920Z,9.400000
2023-01-09T11:14:01.018Z,9.400000
2023-01-09T11:15:01.469Z,10.700000
2023-01-09T11:16:01.019Z,10.700000
2023-01-09T11:17:00.947Z,10.400000
2023-01-09T11:18:01.008Z,10.400000
2023-01-09T11:19:00.978Z,10.400000
2023-01-09T11:20:02.215Z,10.400000
2023-01-09T11:21:00.973Z,10.400000
2023-01-09T11:22:01.040Z,7.900000
2023-01-09T11:23:00.973Z,7.900000
2023-01-09T11:24:01.064Z,7.900000
2023-01-09T11:25:01.595Z,7.900000
2023-01-09T11:26:01.081Z,7.900000
2023-01-09T11:27:01.018Z,4.000000
2023-01-09T11:28:01.061Z,4.000000
2023-01-09T11:29:01.019Z,4.000000
2023-01-09T11:30:01.851Z,4.900000
2023-01-09T11:31:01.214Z,4.900000
2023-01-09T11:32:01.152Z,4.900000
2023-01-09T11:33:01.062Z,4.900000
2023-01-09T11:34:01.105Z,4.900000
2023-01-09T11:35:01.576Z,5.700000
2023-01-09T11:36:01.149Z,5.700000
2023-01-09T11:37:01.196Z,5.700000
2023-01-09T11:38:01.227Z,5.600000
2023-01-09T11:39:01.134Z,5.600000